Time;durP1;ratioP1;P1;durP2;ratioP2;P2;SDS_P1;SDS_P2;PMS_P1;PMS_P2;Temp;Humidity;BMP_temperature;BMP_pressure;BME280_temperature;BME280_humidity;BME280_pressure;Samples;Min_cycle;Max_cycle;Signal;HPM_P1;HPM_P2
2023/06/06 00:01:55;;;;;;;9.68;6.00;;;;;;;13.66;86.21;102061.75;4982964;28;20486;-87
2023/06/06 00:04:21;;;;;;;9.15;5.30;;;;;;;13.60;86.45;102064.88;4981706;28;20056;-87
2023/06/06 00:06:47;;;;;;;9.57;5.32;;;;;;;13.68;86.09;102079.09;4977665;28;20628;-88
2023/06/06 00:09:13;;;;;;;8.85;5.53;;;;;;;13.52;86.48;102051.84;4977692;28;20027;-88
2023/06/06 00:11:39;;;;;;;11.18;6.28;;;;;;;13.55;86.23;102051.09;4974039;28;20027;-88
2023/06/06 00:14:09;;;;;;;10.63;6.15;;;;;;;13.57;86.67;102076.88;5000191;28;20045;-88
2023/06/06 00:16:35;;;;;;;8.85;5.22;;;;;;;13.62;86.06;102078.59;4969498;28;20026;-88
2023/06/06 00:19:02;;;;;;;9.25;5.25;;;;;;;13.51;87.25;102075.53;4967349;28;20491;-88
2023/06/06 00:21:28;;;;;;;11.25;5.55;;;;;;;13.44;87.09;102072.56;4973389;28;20042;-88
2023/06/06 00:23:55;;;;;;;10.93;5.25;;;;;;;13.55;86.66;102078.44;4974739;28;20046;-87
2023/06/06 00:26:20;;;;;;;11.27;5.10;;;;;;;13.55;86.87;102089.69;4991690;28;20029;-88
2023/06/06 00:28:46;;;;;;;12.05;6.22;;;;;;;13.41;87.52;102079.75;4973395;28;20041;-89
2023/06/06 00:31:11;;;;;;;10.73;5.80;;;;;;;13.36;87.78;102068.78;4976157;28;20178;-88
2023/06/06 00:33:37;;;;;;;8.27;5.15;;;;;;;13.22;88.08;102052.41;4993678;28;20422;-88
2023/06/06 00:36:02;;;;;;;10.15;5.55;;;;;;;13.12;88.12;102044.53;4985578;28;20483;-88
2023/06/06 00:38:28;;;;;;;9.63;5.82;;;;;;;13.20;88.08;102054.75;4975385;28;20455;-88
2023/06/06 00:40:53;;;;;;;9.23;5.32;;;;;;;13.31;87.82;102071.09;4991379;28;20026;-87
2023/06/06 00:43:19;;;;;;;7.47;4.95;;;;;;;13.18;88.77;102059.13;4989093;28;20033;-88
2023/06/06 00:45:44;;;;;;;8.30;5.15;;;;;;;13.14;88.37;102044.97;4981131;28;20034;-88
2023/06/06 00:48:10;;;;;;;11.13;5.47;;;;;;;13.17;89.02;102055.47;4973545;28;20900;-88
2023/06/06 00:50:37;;;;;;;10.07;5.10;;;;;;;13.11;88.12;102042.91;4977804;28;20134;-88
2023/06/06 00:53:03;;;;;;;12.25;6.10;;;;;;;13.05;89.61;102066.88;4979871;28;20554;-88
2023/06/06 00:55:31;;;;;;;12.30;6.40;;;;;;;13.06;89.47;102062.06;4976443;28;20038;-88
2023/06/06 00:57:59;;;;;;;12.07;5.18;;;;;;;13.03;90.01;102072.03;4980430;28;20523;-88
2023/06/06 01:00:27;;;;;;;8.07;5.43;;;;;;;12.92;90.14;102054.94;4967761;28;20034;-88
2023/06/06 01:02:53;;;;;;;12.13;6.38;;;;;;;12.93;89.53;102050.13;4970123;28;20034;-89
2023/06/06 01:05:19;;;;;;;8.88;5.57;;;;;;;12.93;89.78;102052.94;4972638;28;20437;-88
2023/06/06 01:07:47;;;;;;;11.40;5.65;;;;;;;12.98;89.86;102067.50;4973673;28;20058;-88
2023/06/06 01:10:13;;;;;;;8.85;4.93;;;;;;;13.02;89.24;102056.34;4986896;28;20403;-89
2023/06/06 01:12:58;;;;;;;12.52;6.50;;;;;;;13.04;90.01;102070.84;4997850;28;20394;-89
2023/06/06 01:15:26;;;;;;;9.80;5.00;;;;;;;12.98;90.46;102064.69;4994443;28;20419;-88
2023/06/06 01:17:52;;;;;;;13.48;6.15;;;;;;;12.93;90.73;102059.34;4982589;28;20042;-88
2023/06/06 01:20:21;;;;;;;8.65;5.57;;;;;;;12.87;90.49;102051.56;5002723;28;20076;-89
2023/06/06 01:22:48;;;;;;;10.77;5.28;;;;;;;12.85;90.31;102054.75;4984202;28;20051;-88
2023/06/06 01:25:19;;;;;;;8.48;4.95;;;;;;;12.90;90.59;102054.47;4997500;28;20032;-88
2023/06/06 01:27:47;;;;;;;9.93;4.88;;;;;;;12.85;91.28;102056.75;4983270;28;20475;-89
2023/06/06 01:30:14;;;;;;;8.50;5.38;;;;;;;12.81;90.61;102051.84;4979366;28;20030;-88
2023/06/06 01:32:55;;;;;;;8.40;5.03;;;;;;;12.82;91.02;102059.09;4985529;28;20485;-88
2023/06/06 01:35:47;;;;;;;9.43;5.18;;;;;;;12.78;91.12;102063.81;4980506;28;20057;-88
2023/06/06 01:38:23;;;;;;;8.97;5.63;;;;;;;12.61;91.58;102033.31;4976830;28;20434;-88
2023/06/06 01:40:52;;;;;;;7.55;5.25;;;;;;;12.65;90.99;102028.59;5018210;28;20764;-88
2023/06/06 01:43:22;;;;;;;10.55;5.20;;;;;;;12.73;91.30;102044.44;4981106;28;20079;-88
2023/06/06 01:45:49;;;;;;;9.00;5.63;;;;;;;12.76;91.85;102054.13;4996950;28;20154;-89
2023/06/06 01:48:19;;;;;;;10.02;5.07;;;;;;;12.73;91.59;102049.22;4986174;28;20406;-88
2023/06/06 01:50:45;;;;;;;10.50;5.20;;;;;;;12.65;92.70;102044.59;4983050;28;20097;-88
2023/06/06 01:53:10;;;;;;;13.20;5.63;;;;;;;12.67;92.83;102045.91;4987355;28;20069;-89
2023/06/06 01:55:36;;;;;;;9.23;5.22;;;;;;;12.66;92.64;102040.63;4983883;28;20034;-88
2023/06/06 01:58:04;;;;;;;12.13;5.63;;;;;;;12.55;92.92;102043.19;4980813;28;20058;-89
2023/06/06 02:00:30;;;;;;;8.20;4.95;;;;;;;12.53;92.76;102039.94;4983835;28;20030;-89
2023/06/06 02:02:56;;;;;;;9.60;5.35;;;;;;;12.63;93.08;102046.97;4985269;28;20180;-89
2023/06/06 02:05:21;;;;;;;11.50;5.88;;;;;;;12.49;93.50;102033.41;4987627;28;20030;-89
2023/06/06 02:07:49;;;;;;;16.63;5.55;;;;;;;12.36;93.88;102025.06;4982401;28;20066;-88
2023/06/06 02:10:15;;;;;;;9.15;4.47;;;;;;;12.56;93.67;102056.84;4981581;28;20497;-89
2023/06/06 02:12:41;;;;;;;9.10;5.20;;;;;;;12.57;92.48;102052.06;4981772;28;20487;-88
2023/06/06 02:15:10;;;;;;;11.82;5.35;;;;;;;12.48;93.44;102045.78;4996111;28;20104;-88
2023/06/06 02:17:36;;;;;;;9.73;5.40;;;;;;;12.54;93.33;102052.78;4996207;28;20503;-88
2023/06/06 02:20:04;;;;;;;10.60;5.65;;;;;;;12.37;93.86;102032.28;4994996;28;20118;-89
2023/06/06 02:22:29;;;;;;;12.57;6.18;;;;;;;12.37;94.92;102043.53;4987608;28;20054;-89
2023/06/06 02:24:55;;;;;;;14.05;7.25;;;;;;;12.50;94.04;102046.25;4985357;28;20053;-89
2023/06/06 02:27:21;;;;;;;11.13;6.28;;;;;;;12.26;94.19;102020.00;4981094;28;20026;-89
2023/06/06 02:29:46;;;;;;;12.60;5.43;;;;;;;12.27;94.60;102034.84;4999333;28;20073;-89
2023/06/06 02:32:12;;;;;;;13.38;6.88;;;;;;;12.25;94.81;102035.22;4999622;28;20518;-90
2023/06/06 02:34:37;;;;;;;12.93;6.38;;;;;;;12.21;94.42;102023.06;4984538;28;20042;-89
2023/06/06 02:37:06;;;;;;;11.57;5.75;;;;;;;12.21;95.18;102034.31;4985168;28;20112;-88
2023/06/06 02:39:33;;;;;;;11.40;5.90;;;;;;;12.15;95.27;102030.94;4983096;28;20034;-90
2023/06/06 02:41:58;;;;;;;9.80;5.43;;;;;;;12.25;95.04;102034.38;4982525;28;20066;-90
2023/06/06 02:44:27;;;;;;;10.70;5.78;;;;;;;12.31;94.17;102047.81;4979230;28;20058;-89
2023/06/06 02:46:52;;;;;;;14.27;6.50;;;;;;;12.19;93.68;102014.19;4981306;28;20033;-89
2023/06/06 02:49:18;;;;;;;9.25;5.22;;;;;;;12.19;94.86;102025.44;4981552;28;20038;-90
2023/06/06 02:51:43;;;;;;;10.15;5.70;;;;;;;12.26;94.98;102033.22;4981918;28;20034;-89
2023/06/06 02:54:08;;;;;;;10.75;6.00;;;;;;;12.23;94.49;102036.72;4983061;28;20062;-90
2023/06/06 02:56:34;;;;;;;9.93;5.43;;;;;;;12.17;94.21;102022.16;4978988;28;20026;-89
2023/06/06 02:58:59;;;;;;;14.25;5.75;;;;;;;12.21;94.96;102039.91;4984350;28;20026;-90
2023/06/06 03:01:25;;;;;;;9.45;5.35;;;;;;;12.03;94.94;102010.56;4982669;28;20104;-90
2023/06/06 03:03:51;;;;;;;11.93;6.40;;;;;;;12.17;94.98;102041.81;4984768;28;20030;-90
2023/06/06 03:06:16;;;;;;;12.65;5.95;;;;;;;12.05;95.27;102028.66;4982202;28;20058;-90
2023/06/06 03:08:45;;;;;;;13.70;6.05;;;;;;;12.12;95.28;102053.28;5000128;28;20401;-91
2023/06/06 03:11:11;;;;;;;11.00;5.72;;;;;;;12.00;95.26;102035.34;4984250;28;20042;-89
2023/06/06 03:13:37;;;;;;;11.15;6.10;;;;;;;12.04;95.71;102040.25;4984556;28;20121;-90
2023/06/06 03:16:02;;;;;;;8.75;5.13;;;;;;;11.95;95.99;102027.22;4991164;28;20030;-90
2023/06/06 03:18:28;;;;;;;9.63;5.53;;;;;;;12.04;95.21;102037.44;4982827;28;20659;-89
2023/06/06 03:20:53;;;;;;;10.43;5.65;;;;;;;11.96;96.14;102042.06;4976176;28;20515;-90
2023/06/06 03:23:21;;;;;;;10.43;5.32;;;;;;;12.02;96.61;102054.66;4988180;28;20022;-90
2023/06/06 03:25:49;;;;;;;10.32;5.45;;;;;;;11.79;97.14;102029.94;4987527;28;20034;-91
2023/06/06 03:28:17;;;;;;;11.93;6.38;;;;;;;11.84;96.67;102034.47;4987023;28;20026;-90
2023/06/06 03:30:43;;;;;;;9.70;5.00;;;;;;;11.96;96.26;102045.66;4987633;28;20038;-90
2023/06/06 03:33:08;;;;;;;11.15;5.72;;;;;;;11.99;96.17;102050.56;4985437;28;20096;-90
2023/06/06 03:35:34;;;;;;;11.95;6.10;;;;;;;11.95;96.12;102049.66;4987773;28;20093;-90
2023/06/06 03:38:01;;;;;;;13.52;6.25;;;;;;;11.76;96.56;102022.25;4987063;28;20028;-90
2023/06/06 03:40:26;;;;;;;11.38;6.18;;;;;;;11.81;97.13;102035.22;4999126;28;20023;-90
2023/06/06 03:42:52;;;;;;;16.02;6.68;;;;;;;11.74;97.28;102015.34;4987092;28;20030;-92
2023/06/06 03:45:18;;;;;;;16.33;6.13;;;;;;;11.85;96.96;102038.94;5003692;28;20411;-93
2023/06/06 03:47:45;;;;;;;11.75;5.80;;;;;;;11.98;96.85;102051.75;4985002;28;20058;-93
2023/06/06 03:50:11;;;;;;;11.85;6.07;;;;;;;11.74;97.47;102023.78;4984648;28;20034;-93
2023/06/06 03:52:37;;;;;;;13.40;7.07;;;;;;;11.76;97.57;102027.88;4983470;28;20033;-92
2023/06/06 03:55:03;;;;;;;13.65;6.60;;;;;;;11.90;96.91;102047.09;4983067;28;20034;-93
2023/06/06 03:57:28;;;;;;;12.45;8.43;;;;;;;11.84;97.66;102037.28;5004580;28;20030;-93
2023/06/06 03:59:54;;;;;;;11.32;6.22;;;;;;;11.79;97.11;102031.94;4989844;28;20030;-93
2023/06/06 04:02:20;;;;;;;15.40;6.25;;;;;;;11.82;96.85;102028.41;4987858;28;20119;-92
2023/06/06 04:04:45;;;;;;;13.02;6.50;;;;;;;11.78;98.00;102031.13;4984275;28;20104;-93
2023/06/06 04:07:10;;;;;;;14.10;5.90;;;;;;;11.89;99.08;102044.66;4988314;28;20038;-92
2023/06/06 04:09:36;;;;;;;12.07;6.10;;;;;;;11.70;98.55;102015.28;4987513;28;20023;-92
2023/06/06 04:12:06;;;;;;;12.50;6.47;;;;;;;11.76;99.28;102029.84;4985063;28;20030;-93
2023/06/06 04:14:31;;;;;;;12.85;5.72;;;;;;;11.76;99.34;102029.84;4968820;28;20041;-93
2023/06/06 04:16:57;;;;;;;14.07;6.38;;;;;;;11.85;99.19;102038.94;4990442;28;20184;-93
2023/06/06 04:19:22;;;;;;;10.48;6.80;;;;;;;11.80;99.30;102027.94;4981948;28;20046;-93
2023/06/06 04:21:48;;;;;;;13.95;6.43;;;;;;;11.81;100.00;102032.41;4985597;28;20050;-93
2023/06/06 04:24:13;;;;;;;9.77;5.80;;;;;;;11.80;99.67;102030.75;4978633;28;20394;-93
2023/06/06 04:26:38;;;;;;;17.45;7.30;;;;;;;11.89;100.00;102039.88;4981409;28;20700;-92
2023/06/06 04:29:04;;;;;;;14.25;6.53;;;;;;;11.78;99.42;102021.88;4984340;28;20050;-94
2023/06/06 04:31:29;;;;;;;11.40;6.32;;;;;;;11.94;99.35;102048.00;4982375;28;21980;-93
2023/06/06 04:34:01;;;;;;;9.30;6.43;;;;;;;11.83;99.89;102024.44;4985459;28;20022;-94
2023/06/06 04:36:26;;;;;;;12.13;5.90;;;;;;;11.99;99.32;102049.75;4986496;28;20170;-92
2023/06/06 04:38:52;;;;;;;16.25;6.53;;;;;;;11.83;99.99;102030.06;4988570;28;20153;-93
2023/06/06 04:41:22;;;;;;;12.48;6.95;;;;;;;11.91;100.00;102043.13;4990236;28;20026;-93
2023/06/06 04:43:51;;;;;;;9.57;6.10;;;;;;;11.85;100.00;102029.66;4988808;28;20034;-93
2023/06/06 04:46:23;;;;;;;14.75;6.35;;;;;;;11.92;99.83;102033.53;4980639;28;20076;-94
2023/06/06 04:48:56;;;;;;;15.05;6.70;;;;;;;11.90;99.83;102024.66;4979510;28;20049;-94
2023/06/06 04:51:29;;;;;;;;;;;;;;;12.08;100.00;102053.22;4984866;28;20043;-95
2023/06/06 04:54:02;;;;;;;13.55;7.00;;;;;;;12.04;100.00;102051.47;4986415;28;19922;-92
2023/06/06 04:56:28;;;;;;;16.20;6.82;;;;;;;11.93;100.00;102029.56;4986709;28;20109;-93
2023/06/06 04:58:55;;;;;;;16.70;7.50;;;;;;;11.99;100.00;102038.53;4993053;28;20045;-93
2023/06/06 05:01:23;;;;;;;17.80;7.60;;;;;;;11.96;100.00;102017.59;4983322;28;20037;-93
2023/06/06 05:03:50;;;;;;;16.92;7.80;;;;;;;12.02;100.00;102026.59;4995209;28;20060;-93
2023/06/06 05:06:16;;;;;;;16.75;8.00;;;;;;;12.05;100.00;102019.44;4985607;28;20038;-93
2023/06/06 05:08:46;;;;;;;11.52;6.43;;;;;;;12.16;100.00;102026.97;4998911;28;20030;-94
2023/06/06 05:11:12;;;;;;;14.00;6.60;;;;;;;12.18;100.00;102029.41;4985516;28;20129;-94
2023/06/06 05:13:37;;;;;;;12.68;6.38;;;;;;;12.08;100.00;102025.16;4981612;28;20053;-93
2023/06/06 05:16:03;;;;;;;12.32;6.20;;;;;;;12.10;100.00;102038.81;4979489;28;20038;-94
2023/06/06 05:18:31;;;;;;;12.48;6.43;;;;;;;12.23;100.00;102048.78;5001435;28;20034;-94
2023/06/06 05:21:01;;;;;;;12.32;6.78;;;;;;;12.26;100.00;102039.63;4983021;28;20054;-93
2023/06/06 05:23:31;;;;;;;12.25;6.53;;;;;;;12.33;100.00;102037.03;4999122;28;20395;-92
2023/06/06 05:25:58;;;;;;;9.05;5.43;;;;;;;12.22;100.00;102024.69;4985275;28;20022;-93
2023/06/06 05:28:32;;;;;;;9.40;6.00;;;;;;;12.26;100.00;102022.78;4978120;28;20774;-92
2023/06/06 05:30:57;;;;;;;10.98;6.60;;;;;;;12.03;100.00;102019.78;4978578;28;20105;-92
2023/06/06 05:33:26;;;;;;;13.02;6.50;;;;;;;12.23;100.00;102040.38;4986316;28;20478;-93
2023/06/06 05:35:52;;;;;;;12.32;6.25;;;;;;;12.21;100.00;102023.06;4986896;28;20033;-92
2023/06/06 05:38:19;;;;;;;11.60;6.47;;;;;;;12.36;100.00;102025.06;4978364;28;20077;-92
2023/06/06 05:40:45;;;;;;;17.88;6.22;;;;;;;12.45;100.00;102021.25;4982761;28;20034;-92
2023/06/06 05:43:11;;;;;;;17.63;8.38;;;;;;;12.51;100.00;102064.75;4979344;28;20038;-90
2023/06/06 05:45:36;;;;;;;14.10;6.93;;;;;;;12.44;100.00;102058.94;4987910;28;20049;-92
2023/06/06 05:48:03;;;;;;;12.10;7.25;;;;;;;12.46;100.00;102031.31;4981040;28;20029;-92
2023/06/06 05:50:28;;;;;;;12.80;6.00;;;;;;;12.44;100.00;102030.84;4986680;28;20625;-93
2023/06/06 05:52:54;;;;;;;13.68;7.07;;;;;;;12.34;100.00;102032.22;4980573;28;20037;-92
2023/06/06 05:55:30;;;;;;;14.05;7.03;;;;;;;12.65;100.00;102055.84;4976820;28;20034;-89
2023/06/06 05:57:56;;;;;;;17.38;6.85;;;;;;;12.67;100.00;102051.53;4984955;28;20502;-89
2023/06/06 06:00:23;;;;;;;12.68;6.53;;;;;;;12.61;100.00;102048.16;4975440;28;20576;-89
2023/06/06 06:02:51;;;;;;;10.18;6.35;;;;;;;12.82;100.00;102059.09;4976342;28;20030;-89
2023/06/06 06:05:17;;;;;;;14.02;6.30;;;;;;;13.70;100.00;102057.84;4976912;28;20038;-79
2023/06/06 06:07:44;;;;;;;18.00;5.38;;;;;;;15.02;98.29;102069.88;4976865;28;20105;-77
2023/06/06 06:10:09;;;;;;;11.88;4.68;;;;;;;16.58;86.35;102068.50;4972287;28;20242;-77
2023/06/06 06:12:35;;;;;;;10.48;4.47;;;;;;;17.25;81.05;102071.03;4976708;28;20030;-78
2023/06/06 06:15:00;;;;;;;11.30;5.10;;;;;;;17.52;79.27;102078.44;4983263;28;20035;-77
2023/06/06 06:17:25;;;;;;;12.43;5.60;;;;;;;15.70;86.93;102070.78;4980976;28;20137;-77
2023/06/06 06:19:51;;;;;;;13.43;5.65;;;;;;;14.87;90.71;102068.84;4976612;28;20523;-76
2023/06/06 06:22:16;;;;;;;16.15;5.53;;;;;;;14.83;92.99;102068.75;4975041;28;20113;-76
2023/06/06 06:24:42;;;;;;;12.93;5.53;;;;;;;14.68;96.79;102066.91;4977815;28;20030;-76
2023/06/06 06:27:07;;;;;;;10.27;5.68;;;;;;;14.96;95.92;102071.38;4978963;28;20104;-76
2023/06/06 06:29:32;;;;;;;9.48;4.38;;;;;;;15.81;91.26;102077.41;4978361;28;20034;-76
2023/06/06 06:31:58;;;;;;;10.90;5.78;;;;;;;15.79;89.85;102077.00;4970436;28;20034;-77
2023/06/06 06:34:23;;;;;;;10.40;5.50;;;;;;;15.67;90.47;102080.03;4976031;28;20117;-77
2023/06/06 06:36:48;;;;;;;13.10;5.32;;;;;;;15.54;91.68;102068.19;4990119;28;20432;-76
2023/06/06 06:39:18;;;;;;;14.35;5.95;;;;;;;15.20;94.47;102082.22;4972148;28;20022;-76
2023/06/06 06:41:45;;;;;;;11.63;5.13;;;;;;;15.71;91.89;102080.91;4982779;28;20033;-76
2023/06/06 06:44:11;;;;;;;14.38;5.40;;;;;;;15.89;87.92;102075.47;4981304;28;20033;-77
2023/06/06 06:46:36;;;;;;;9.18;4.57;;;;;;;15.39;91.62;102078.47;4978603;28;20037;-77
2023/06/06 06:49:01;;;;;;;8.98;4.47;;;;;;;15.67;91.19;102065.13;4971463;28;20084;-75
2023/06/06 06:51:27;;;;;;;8.70;5.72;;;;;;;16.98;84.11;102073.28;4987646;28;20033;-75
2023/06/06 06:53:53;;;;;;;11.23;4.72;;;;;;;17.75;79.23;102076.16;4988150;28;20053;-76
2023/06/06 06:56:18;;;;;;;11.30;5.25;;;;;;;16.78;83.90;102069.06;4997556;28;20574;-75
2023/06/06 06:58:44;;;;;;;7.60;3.97;;;;;;;17.82;77.12;102083.84;4974214;28;20034;-76
2023/06/06 07:01:10;;;;;;;8.55;5.05;;;;;;;17.58;77.45;102074.03;4974213;28;20041;-75
2023/06/06 07:03:36;;;;;;;11.20;5.13;;;;;;;16.44;81.87;102078.50;4975413;28;21072;-75
2023/06/06 07:06:05;;;;;;;11.20;5.70;;;;;;;15.41;89.38;102075.25;4973115;28;20026;-76
2023/06/06 07:08:30;;;;;;;8.88;5.55;;;;;;;15.14;91.97;102080.94;4978303;28;20035;-76
2023/06/06 07:10:55;;;;;;;13.77;5.78;;;;;;;15.13;92.41;102075.66;4973530;28;20042;-78
2023/06/06 07:13:21;;;;;;;8.20;5.00;;;;;;;14.82;94.87;102071.94;4976699;28;20542;-77
2023/06/06 07:15:46;;;;;;;13.23;5.97;;;;;;;14.86;94.92;102060.75;4984272;28;20037;-77
2023/06/06 07:18:12;;;;;;;14.10;6.10;;;;;;;14.59;96.68;102066.38;4983384;28;20026;-77
2023/06/06 07:20:38;;;;;;;15.73;6.95;;;;;;;14.70;95.90;102069.38;4978891;28;20030;-77
2023/06/06 07:23:03;;;;;;;13.20;5.63;;;;;;;14.78;96.46;102071.91;4975307;28;20041;-79
2023/06/06 07:25:29;;;;;;;14.85;6.30;;;;;;;14.56;98.83;102070.72;4980076;28;20092;-79
2023/06/06 07:27:54;;;;;;;15.77;6.50;;;;;;;14.76;98.02;102065.84;4983424;28;20459;-79
2023/06/06 07:30:20;;;;;;;10.77;5.85;;;;;;;14.79;97.95;102061.44;4965214;28;21629;-79
2023/06/06 07:32:49;;;;;;;13.43;6.72;;;;;;;14.79;96.68;102073.53;4977565;28;20033;-78
2023/06/06 07:35:16;;;;;;;9.45;5.40;;;;;;;14.78;98.69;102071.13;4974034;28;20034;-78
2023/06/06 07:37:41;;;;;;;11.85;6.68;;;;;;;14.76;98.06;102063.03;4970547;28;20049;-78
2023/06/06 07:40:10;;;;;;;9.40;5.22;;;;;;;15.09;97.62;102063.50;4975909;28;20502;-78
2023/06/06 07:42:36;;;;;;;13.68;5.97;;;;;;;15.16;96.23;102067.25;4966814;28;20488;-79
2023/06/06 07:45:03;;;;;;;12.43;6.45;;;;;;;15.14;95.08;102066.81;4992829;28;20030;-78
2023/06/06 07:47:28;;;;;;;12.63;7.13;;;;;;;15.08;95.03;102068.34;4972590;28;20160;-78
2023/06/06 07:49:54;;;;;;;16.17;6.95;;;;;;;15.27;95.29;102070.22;4968190;28;20039;-79
2023/06/06 07:52:19;;;;;;;9.38;5.25;;;;;;;15.13;94.77;102059.53;4966611;28;20053;-78
2023/06/06 07:54:45;;;;;;;9.90;5.13;;;;;;;15.10;95.56;102063.13;4973067;28;20096;-79
2023/06/06 07:57:11;;;;;;;10.82;5.18;;;;;;;15.43;94.95;102068.03;4982446;28;20054;-80
2023/06/06 07:59:37;;;;;;;12.90;5.85;;;;;;;15.54;94.85;102067.38;4969682;28;20022;-79
2023/06/06 08:02:03;;;;;;;7.53;5.30;;;;;;;15.45;94.34;102067.63;4987220;28;20058;-79
2023/06/06 08:04:28;;;;;;;10.45;5.55;;;;;;;15.60;94.17;102065.81;4978371;28;20038;-79
2023/06/06 08:06:54;;;;;;;11.98;6.65;;;;;;;15.77;93.97;102067.25;4990837;28;20180;-80
2023/06/06 08:09:20;;;;;;;14.98;6.50;;;;;;;15.86;93.19;102064.97;4977455;28;20050;-80
2023/06/06 08:11:45;;;;;;;10.65;6.40;;;;;;;15.84;93.99;102061.72;4976511;28;21505;-79
2023/06/06 08:14:10;;;;;;;13.15;6.55;;;;;;;16.12;93.10;102061.19;4990208;28;20038;-79
2023/06/06 08:16:37;;;;;;;15.00;6.47;;;;;;;16.23;92.18;102058.47;4974222;28;20046;-79
2023/06/06 08:19:03;;;;;;;15.10;6.30;;;;;;;16.11;92.51;102058.78;4978164;28;20038;-79
2023/06/06 08:21:28;;;;;;;12.13;7.00;;;;;;;16.02;93.64;102059.91;4976709;28;20136;-79
2023/06/06 08:23:55;;;;;;;12.93;8.07;;;;;;;16.21;90.93;102056.06;4987970;28;20030;-79
2023/06/06 08:26:25;;;;;;;10.68;5.95;;;;;;;16.20;91.45;102060.09;4986558;28;20022;-79
2023/06/06 08:28:53;;;;;;;12.95;6.90;;;;;;;16.13;91.83;102056.34;4980957;28;20058;-79
2023/06/06 08:31:19;;;;;;;14.32;6.63;;;;;;;16.34;92.82;102059.41;4981782;28;20478;-79
2023/06/06 08:33:45;;;;;;;16.88;7.03;;;;;;;16.58;90.02;102055.19;4985073;28;20164;-79
2023/06/06 08:36:12;;;;;;;14.70;6.13;;;;;;;16.71;89.53;102049.22;4983892;28;20092;-79
2023/06/06 08:38:38;;;;;;;11.40;5.25;;;;;;;16.73;89.16;102052.47;4993813;28;20035;-79
2023/06/06 08:41:05;;;;;;;14.30;6.20;;;;;;;16.71;88.36;102055.69;4981679;28;21230;-79
2023/06/06 08:43:36;;;;;;;9.13;5.50;;;;;;;17.22;87.57;102057.69;4984716;28;20034;-79
2023/06/06 08:46:02;;;;;;;13.45;6.38;;;;;;;17.15;87.16;102054.81;4987856;28;20052;-79
2023/06/06 08:48:28;;;;;;;12.60;5.57;;;;;;;17.32;85.26;102047.63;4995074;28;20475;-79
2023/06/06 08:50:56;;;;;;;11.85;6.65;;;;;;;17.36;84.80;102051.28;4977241;28;20069;-81
2023/06/06 08:53:22;;;;;;;14.43;5.82;;;;;;;17.37;84.32;102046.44;4979321;28;22199;-78
2023/06/06 08:55:48;;;;;;;13.98;6.30;;;;;;;17.70;83.82;102041.72;4977155;28;20030;-79
2023/06/06 08:58:14;;;;;;;16.45;6.28;;;;;;;17.44;84.39;102035.16;4976876;28;20030;-79
2023/06/06 09:00:40;;;;;;;10.70;6.18;;;;;;;17.52;84.88;102045.31;4986425;28;20594;-78
2023/06/06 09:03:11;;;;;;;11.43;5.95;;;;;;;17.60;84.94;102046.97;4973398;28;20034;-79
2023/06/06 09:05:40;;;;;;;11.13;6.53;;;;;;;17.64;85.96;102042.09;4980192;28;20080;-78
2023/06/06 09:08:06;;;;;;;14.13;6.20;;;;;;;17.74;82.45;102042.56;4976950;28;21694;-78
2023/06/06 09:10:32;;;;;;;10.68;6.10;;;;;;;17.81;84.68;102045.41;4976893;28;20114;-79
2023/06/06 09:12:57;;;;;;;12.73;5.35;;;;;;;17.85;82.48;102046.25;4979635;28;23360;-78
2023/06/06 09:15:25;;;;;;;10.18;5.30;;;;;;;18.26;81.43;102040.28;4999475;28;20057;-78
2023/06/06 09:17:53;;;;;;;13.80;6.38;;;;;;;18.02;81.23;102042.66;4990676;28;20494;-79
2023/06/06 09:20:18;;;;;;;11.23;5.65;;;;;;;18.25;81.54;102038.66;4990055;28;20031;-78
2023/06/06 09:22:46;;;;;;;12.20;6.25;;;;;;;18.08;80.18;102035.38;4979609;28;20093;-79
2023/06/06 09:25:27;;;;;;;13.70;5.85;;;;;;;18.39;78.75;102043.53;4992473;28;20038;-78
2023/06/06 09:28:01;;;;;;;13.50;5.93;;;;;;;18.38;79.89;102042.69;4983925;28;20034;-79
2023/06/06 09:30:30;;;;;;;9.38;5.35;;;;;;;18.37;79.36;102034.63;4986245;28;20488;-78
2023/06/06 09:33:02;;;;;;;13.27;6.95;;;;;;;18.40;78.09;102039.47;4982243;28;20030;-79
2023/06/06 09:35:41;;;;;;;10.75;5.15;;;;;;;18.62;78.69;102045.97;4981432;28;20498;-79
2023/06/06 09:38:17;;;;;;;15.07;5.82;;;;;;;18.73;78.70;102041.09;4980031;28;20036;-79
2023/06/06 09:40:57;;;;;;;9.93;5.78;;;;;;;19.03;76.54;102042.69;4999334;28;20034;-79
2023/06/06 09:43:24;;;;;;;9.55;6.10;;;;;;;19.20;76.18;102041.81;4978001;28;20049;-79
2023/06/06 09:46:04;;;;;;;9.30;5.75;;;;;;;19.30;75.71;102043.84;4977424;28;20030;-79
2023/06/06 09:48:29;;;;;;;13.48;6.35;;;;;;;19.46;74.07;102043.38;4978302;28;20038;-79
2023/06/06 09:50:55;;;;;;;7.75;5.25;;;;;;;19.44;71.44;102048.66;4972561;28;20496;-79
2023/06/06 09:53:28;;;;;;;12.80;5.80;;;;;;;19.60;72.17;102039.66;4977627;28;20038;-79
2023/06/06 09:55:57;;;;;;;13.05;6.05;;;;;;;19.38;75.75;102040.97;4972557;28;20062;-80
2023/06/06 09:58:25;;;;;;;9.98;5.25;;;;;;;20.16;72.89;102036.94;4978316;28;20022;-79
2023/06/06 10:00:52;;;;;;;8.82;5.13;;;;;;;19.74;71.27;102035.19;4974255;28;20183;-79
2023/06/06 10:03:19;;;;;;;11.82;6.25;;;;;;;19.86;69.17;102026.19;4974002;28;20045;-79
2023/06/06 10:05:49;;;;;;;11.40;5.65;;;;;;;19.52;73.83;102028.75;4974657;28;20414;-79
2023/06/06 10:08:17;;;;;;;9.07;5.97;;;;;;;19.81;73.13;102035.13;4976377;28;20045;-79
2023/06/06 10:10:46;;;;;;;9.90;5.22;;;;;;;19.74;73.80;102035.19;4976114;28;20049;-79
2023/06/06 10:13:13;;;;;;;9.02;5.15;;;;;;;19.65;71.26;102024.25;4979046;28;20476;-79
2023/06/06 10:15:39;;;;;;;10.30;5.22;;;;;;;19.95;71.48;102018.00;4976339;28;20030;-79
2023/06/06 10:18:05;;;;;;;12.20;5.65;;;;;;;20.04;71.07;102032.53;4980082;28;20053;-79
2023/06/06 10:20:32;;;;;;;9.65;5.63;;;;;;;20.58;72.32;102035.03;4980947;28;20491;-79
2023/06/06 10:23:02;;;;;;;12.73;5.60;;;;;;;20.56;68.11;102028.13;4982001;28;20046;-79
2023/06/06 10:25:27;;;;;;;9.70;5.88;;;;;;;20.66;67.56;102021.53;5000826;28;20045;-79
2023/06/06 10:27:58;;;;;;;10.80;5.53;;;;;;;20.51;67.66;102029.34;4988013;28;20385;-78
2023/06/06 10:30:43;;;;;;;10.02;5.60;;;;;;;20.69;66.18;102023.56;4979023;28;20138;-78
2023/06/06 10:33:33;;;;;;;8.95;4.65;;;;;;;21.00;66.16;102023.66;4993427;28;20518;-78
2023/06/06 10:36:03;;;;;;;9.85;5.47;;;;;;;20.84;65.28;102021.38;4987627;28;20719;-78
2023/06/06 10:38:30;;;;;;;6.95;4.35;;;;;;;20.92;64.34;102005.84;4982748;28;20491;-78
2023/06/06 10:40:58;;;;;;;7.50;4.22;;;;;;;21.18;66.01;102018.56;4986090;28;20068;-78
2023/06/06 10:43:35;;;;;;;7.97;5.05;;;;;;;21.28;64.73;102023.31;4987244;28;20525;-78
2023/06/06 10:46:02;;;;;;;12.82;5.03;;;;;;;21.19;63.80;102013.66;4981272;28;20455;-78
2023/06/06 10:48:38;;;;;;;11.52;5.55;;;;;;;21.19;65.33;102014.50;4986460;28;20034;-78
2023/06/06 10:51:04;;;;;;;7.32;4.70;;;;;;;21.45;63.86;102017.88;4986942;28;20148;-78
2023/06/06 10:53:29;;;;;;;6.97;4.40;;;;;;;21.26;65.09;102008.69;4980546;28;20033;-78
2023/06/06 10:55:55;;;;;;;10.07;5.65;;;;;;;21.25;64.17;102004.25;4984329;28;20037;-78
2023/06/06 10:58:29;;;;;;;5.40;4.00;;;;;;;21.46;64.87;102008.06;4986298;28;20138;-78
2023/06/06 11:01:03;;;;;;;6.97;4.35;;;;;;;21.09;65.88;102010.53;4975144;28;20376;-78
2023/06/06 11:03:40;;;;;;;6.07;4.65;;;;;;;21.22;64.25;102005.09;4970930;28;21741;-79
2023/06/06 11:06:19;;;;;;;9.68;4.82;;;;;;;21.00;65.72;102004.53;4992016;28;21618;-79
2023/06/06 11:09:11;;;;;;;9.70;4.95;;;;;;;21.47;65.29;102012.56;4976687;28;20338;-78
2023/06/06 11:11:37;;;;;;;9.15;4.43;;;;;;;22.01;62.15;102003.25;4972647;28;20037;-78
2023/06/06 11:14:07;;;;;;;8.02;3.85;;;;;;;22.14;61.85;102012.81;4972763;28;20410;-79
2023/06/06 11:16:39;;;;;;;7.97;4.43;;;;;;;21.96;62.60;102007.38;4972539;28;20026;-79
2023/06/06 11:19:09;;;;;;;6.95;3.90;;;;;;;21.80;61.65;102008.03;4987698;28;20032;-79
2023/06/06 11:21:38;;;;;;;6.03;4.20;;;;;;;22.29;61.25;102007.72;4976013;28;20068;-79